sensor_id;sensor_type;location;lat;lon;timestamp;P1;durP1;ratioP1;P2;durP2;ratioP2
38427;SDS011;24211;49.980;19.776;2023-07-13T00:02:08;5.60;;;3.13;;
38427;SDS011;24211;49.980;19.776;2023-07-13T00:04:36;5.18;;;3.00;;
38427;SDS011;24211;49.980;19.776;2023-07-13T00:07:03;6.82;;;3.08;;
38427;SDS011;24211;49.980;19.776;2023-07-13T00:09:30;5.47;;;3.03;;
38427;SDS011;24211;49.980;19.776;2023-07-13T00:11:58;4.68;;;2.78;;
38427;SDS011;24211;49.980;19.776;2023-07-13T00:14:25;5.22;;;2.80;;
38427;SDS011;24211;49.980;19.776;2023-07-13T00:16:54;5.43;;;3.08;;
38427;SDS011;24211;49.980;19.776;2023-07-13T00:19:22;6.30;;;3.42;;
38427;SDS011;24211;49.980;19.776;2023-07-13T00:21:49;7.97;;;4.00;;
38427;SDS011;24211;49.980;19.776;2023-07-13T00:24:17;8.60;;;4.13;;
38427;SDS011;24211;49.980;19.776;2023-07-13T00:26:50;8.20;;;4.40;;
38427;SDS011;24211;49.980;19.776;2023-07-13T00:29:18;8.73;;;4.40;;
38427;SDS011;24211;49.980;19.776;2023-07-13T00:31:48;9.45;;;4.43;;
38427;SDS011;24211;49.980;19.776;2023-07-13T00:34:15;9.10;;;4.32;;
38427;SDS011;24211;49.980;19.776;2023-07-13T00:36:43;9.88;;;4.70;;
38427;SDS011;24211;49.980;19.776;2023-07-13T00:39:10;7.72;;;4.05;;
38427;SDS011;24211;49.980;19.776;2023-07-13T00:41:37;8.05;;;4.18;;
38427;SDS011;24211;49.980;19.776;2023-07-13T00:44:05;7.15;;;4.00;;
38427;SDS011;24211;49.980;19.776;2023-07-13T00:46:36;7.38;;;3.97;;
38427;SDS011;24211;49.980;19.776;2023-07-13T00:49:06;5.63;;;3.22;;
38427;SDS011;24211;49.980;19.776;2023-07-13T00:51:43;6.95;;;3.70;;
38427;SDS011;24211;49.980;19.776;2023-07-13T00:57:15;6.22;;;3.55;;
38427;SDS011;24211;49.980;19.776;2023-07-13T00:59:49;4.93;;;2.92;;
38427;SDS011;24211;49.980;19.776;2023-07-13T01:02:24;5.45;;;3.28;;
38427;SDS011;24211;49.980;19.776;2023-07-13T01:04:52;6.03;;;3.08;;
38427;SDS011;24211;49.980;19.776;2023-07-13T01:07:19;4.80;;;2.90;;
38427;SDS011;24211;49.980;19.776;2023-07-13T01:09:47;6.32;;;3.17;;
38427;SDS011;24211;49.980;19.776;2023-07-13T01:12:14;6.35;;;2.88;;
38427;SDS011;24211;49.980;19.776;2023-07-13T01:14:41;6.18;;;2.80;;
38427;SDS011;24211;49.980;19.776;2023-07-13T01:17:10;5.43;;;3.40;;
38427;SDS011;24211;49.980;19.776;2023-07-13T01:19:40;6.05;;;3.30;;
38427;SDS011;24211;49.980;19.776;2023-07-13T01:24:46;5.75;;;3.17;;
38427;SDS011;24211;49.980;19.776;2023-07-13T01:27:16;6.10;;;3.33;;
38427;SDS011;24211;49.980;19.776;2023-07-13T01:29:50;5.38;;;3.13;;
38427;SDS011;24211;49.980;19.776;2023-07-13T01:32:20;4.70;;;2.80;;
38427;SDS011;24211;49.980;19.776;2023-07-13T01:34:54;4.90;;;2.60;;
38427;SDS011;24211;49.980;19.776;2023-07-13T01:37:23;5.32;;;2.63;;
38427;SDS011;24211;49.980;19.776;2023-07-13T01:39:53;7.00;;;3.60;;
38427;SDS011;24211;49.980;19.776;2023-07-13T01:42:20;4.18;;;2.50;;
38427;SDS011;24211;49.980;19.776;2023-07-13T01:45:06;3.83;;;2.35;;
38427;SDS011;24211;49.980;19.776;2023-07-13T01:47:34;4.95;;;2.80;;
38427;SDS011;24211;49.980;19.776;2023-07-13T01:50:01;5.85;;;2.55;;
38427;SDS011;24211;49.980;19.776;2023-07-13T01:52:28;4.65;;;2.65;;
38427;SDS011;24211;49.980;19.776;2023-07-13T01:54:57;4.30;;;2.50;;
38427;SDS011;24211;49.980;19.776;2023-07-13T01:57:25;4.68;;;2.53;;
38427;SDS011;24211;49.980;19.776;2023-07-13T01:59:52;4.18;;;2.50;;
38427;SDS011;24211;49.980;19.776;2023-07-13T02:02:19;7.60;;;2.50;;
38427;SDS011;24211;49.980;19.776;2023-07-13T02:04:46;4.38;;;2.53;;
38427;SDS011;24211;49.980;19.776;2023-07-13T02:07:14;4.75;;;2.40;;
38427;SDS011;24211;49.980;19.776;2023-07-13T02:09:41;3.90;;;2.30;;
38427;SDS011;24211;49.980;19.776;2023-07-13T02:12:08;3.50;;;1.90;;
38427;SDS011;24211;49.980;19.776;2023-07-13T02:14:36;4.63;;;2.13;;
38427;SDS011;24211;49.980;19.776;2023-07-13T02:17:09;4.65;;;1.90;;
38427;SDS011;24211;49.980;19.776;2023-07-13T02:19:36;4.03;;;1.83;;
38427;SDS011;24211;49.980;19.776;2023-07-13T02:22:03;3.65;;;1.90;;
38427;SDS011;24211;49.980;19.776;2023-07-13T02:24:31;4.25;;;2.15;;
38427;SDS011;24211;49.980;19.776;2023-07-13T02:26:58;3.50;;;1.98;;
38427;SDS011;24211;49.980;19.776;2023-07-13T02:29:25;3.83;;;2.13;;
38427;SDS011;24211;49.980;19.776;2023-07-13T02:31:53;4.30;;;2.22;;
38427;SDS011;24211;49.980;19.776;2023-07-13T02:34:20;4.10;;;1.98;;
38427;SDS011;24211;49.980;19.776;2023-07-13T02:36:48;3.78;;;2.08;;
38427;SDS011;24211;49.980;19.776;2023-07-13T02:39:15;4.68;;;2.17;;
38427;SDS011;24211;49.980;19.776;2023-07-13T02:41:43;3.03;;;1.90;;
38427;SDS011;24211;49.980;19.776;2023-07-13T02:44:13;3.30;;;1.95;;
38427;SDS011;24211;49.980;19.776;2023-07-13T02:46:41;4.05;;;2.05;;
38427;SDS011;24211;49.980;19.776;2023-07-13T02:49:08;4.10;;;2.10;;
38427;SDS011;24211;49.980;19.776;2023-07-13T02:51:36;3.65;;;1.90;;
38427;SDS011;24211;49.980;19.776;2023-07-13T02:54:03;3.97;;;1.90;;
38427;SDS011;24211;49.980;19.776;2023-07-13T02:56:31;3.72;;;1.90;;
38427;SDS011;24211;49.980;19.776;2023-07-13T02:58:59;4.18;;;2.13;;
38427;SDS011;24211;49.980;19.776;2023-07-13T03:01:30;4.25;;;2.17;;
38427;SDS011;24211;49.980;19.776;2023-07-13T03:04:03;4.68;;;2.28;;
38427;SDS011;24211;49.980;19.776;2023-07-13T03:06:34;5.07;;;2.20;;
38427;SDS011;24211;49.980;19.776;2023-07-13T03:09:02;4.15;;;2.35;;
38427;SDS011;24211;49.980;19.776;2023-07-13T03:11:32;3.58;;;2.10;;
38427;SDS011;24211;49.980;19.776;2023-07-13T03:14:16;3.33;;;1.98;;
38427;SDS011;24211;49.980;19.776;2023-07-13T03:16:44;3.80;;;2.13;;
38427;SDS011;24211;49.980;19.776;2023-07-13T03:19:11;3.83;;;1.90;;
38427;SDS011;24211;49.980;19.776;2023-07-13T03:21:41;4.28;;;2.03;;
38427;SDS011;24211;49.980;19.776;2023-07-13T03:24:08;3.33;;;1.80;;
38427;SDS011;24211;49.980;19.776;2023-07-13T03:26:36;3.83;;;1.90;;
38427;SDS011;24211;49.980;19.776;2023-07-13T03:29:05;5.28;;;1.92;;
38427;SDS011;24211;49.980;19.776;2023-07-13T03:31:34;3.88;;;1.77;;
38427;SDS011;24211;49.980;19.776;2023-07-13T03:34:04;4.63;;;1.80;;
38427;SDS011;24211;49.980;19.776;2023-07-13T03:36:32;3.55;;;1.83;;
38427;SDS011;24211;49.980;19.776;2023-07-13T03:39:04;3.72;;;1.90;;
38427;SDS011;24211;49.980;19.776;2023-07-13T03:41:46;3.95;;;1.90;;
38427;SDS011;24211;49.980;19.776;2023-07-13T03:44:15;3.95;;;2.00;;
38427;SDS011;24211;49.980;19.776;2023-07-13T03:46:46;4.57;;;2.05;;
38427;SDS011;24211;49.980;19.776;2023-07-13T03:49:14;3.75;;;1.98;;
38427;SDS011;24211;49.980;19.776;2023-07-13T03:51:41;5.13;;;2.17;;
38427;SDS011;24211;49.980;19.776;2023-07-13T03:54:09;3.58;;;1.90;;
38427;SDS011;24211;49.980;19.776;2023-07-13T03:56:36;3.33;;;1.98;;
38427;SDS011;24211;49.980;19.776;2023-07-13T03:59:06;3.28;;;1.80;;
38427;SDS011;24211;49.980;19.776;2023-07-13T04:01:33;4.68;;;2.10;;
38427;SDS011;24211;49.980;19.776;2023-07-13T04:04:03;4.25;;;2.00;;
38427;SDS011;24211;49.980;19.776;2023-07-13T04:06:31;3.88;;;1.98;;
38427;SDS011;24211;49.980;19.776;2023-07-13T04:09:00;4.05;;;2.00;;
38427;SDS011;24211;49.980;19.776;2023-07-13T04:11:32;3.42;;;2.00;;
38427;SDS011;24211;49.980;19.776;2023-07-13T04:14:03;3.80;;;2.22;;
38427;SDS011;24211;49.980;19.776;2023-07-13T04:16:30;5.43;;;2.38;;
38427;SDS011;24211;49.980;19.776;2023-07-13T04:18:58;4.53;;;2.25;;
38427;SDS011;24211;49.980;19.776;2023-07-13T04:21:28;3.63;;;2.00;;
38427;SDS011;24211;49.980;19.776;2023-07-13T04:23:57;3.88;;;2.03;;
38427;SDS011;24211;49.980;19.776;2023-07-13T04:26:24;4.40;;;2.08;;
38427;SDS011;24211;49.980;19.776;2023-07-13T04:28:52;3.90;;;2.10;;
38427;SDS011;24211;49.980;19.776;2023-07-13T04:31:19;3.78;;;2.00;;
38427;SDS011;24211;49.980;19.776;2023-07-13T04:33:48;4.18;;;2.22;;
38427;SDS011;24211;49.980;19.776;2023-07-13T04:36:17;5.25;;;2.20;;
38427;SDS011;24211;49.980;19.776;2023-07-13T04:38:44;3.72;;;2.15;;
38427;SDS011;24211;49.980;19.776;2023-07-13T04:41:11;3.97;;;2.00;;
38427;SDS011;24211;49.980;19.776;2023-07-13T04:43:40;4.00;;;2.08;;
38427;SDS011;24211;49.980;19.776;2023-07-13T04:46:08;4.88;;;2.05;;
38427;SDS011;24211;49.980;19.776;2023-07-13T04:48:39;4.00;;;2.30;;
38427;SDS011;24211;49.980;19.776;2023-07-13T04:51:07;4.55;;;2.30;;
38427;SDS011;24211;49.980;19.776;2023-07-13T04:53:34;3.70;;;2.25;;
38427;SDS011;24211;49.980;19.776;2023-07-13T04:56:03;3.60;;;2.00;;
38427;SDS011;24211;49.980;19.776;2023-07-13T04:58:31;4.38;;;2.20;;
38427;SDS011;24211;49.980;19.776;2023-07-13T05:01:01;4.47;;;2.20;;
38427;SDS011;24211;49.980;19.776;2023-07-13T05:03:32;5.72;;;2.53;;
38427;SDS011;24211;49.980;19.776;2023-07-13T05:06:06;6.65;;;2.60;;
38427;SDS011;24211;49.980;19.776;2023-07-13T05:08:38;4.88;;;2.53;;
38427;SDS011;24211;49.980;19.776;2023-07-13T05:11:05;4.72;;;2.28;;
38427;SDS011;24211;49.980;19.776;2023-07-13T05:13:34;5.05;;;2.50;;
38427;SDS011;24211;49.980;19.776;2023-07-13T05:16:02;4.18;;;2.25;;
38427;SDS011;24211;49.980;19.776;2023-07-13T05:18:34;4.65;;;2.33;;
38427;SDS011;24211;49.980;19.776;2023-07-13T05:21:06;6.03;;;2.17;;
38427;SDS011;24211;49.980;19.776;2023-07-13T05:23:37;5.45;;;2.40;;
38427;SDS011;24211;49.980;19.776;2023-07-13T05:26:04;4.38;;;2.10;;
38427;SDS011;24211;49.980;19.776;2023-07-13T05:28:35;3.55;;;2.10;;
38427;SDS011;24211;49.980;19.776;2023-07-13T05:31:04;5.03;;;2.20;;
38427;SDS011;24211;49.980;19.776;2023-07-13T05:33:34;5.38;;;2.38;;
38427;SDS011;24211;49.980;19.776;2023-07-13T05:36:01;4.93;;;2.40;;
38427;SDS011;24211;49.980;19.776;2023-07-13T05:38:29;4.57;;;2.20;;
38427;SDS011;24211;49.980;19.776;2023-07-13T05:40:56;6.15;;;2.35;;
38427;SDS011;24211;49.980;19.776;2023-07-13T05:43:24;4.03;;;2.15;;
38427;SDS011;24211;49.980;19.776;2023-07-13T05:45:55;4.97;;;2.55;;
38427;SDS011;24211;49.980;19.776;2023-07-13T05:50:51;4.28;;;2.00;;
38427;SDS011;24211;49.980;19.776;2023-07-13T05:53:18;3.58;;;1.95;;
38427;SDS011;24211;49.980;19.776;2023-07-13T05:55:46;4.35;;;2.20;;
38427;SDS011;24211;49.980;19.776;2023-07-13T05:58:17;4.45;;;2.38;;
38427;SDS011;24211;49.980;19.776;2023-07-13T06:00:44;5.68;;;2.17;;
38427;SDS011;24211;49.980;19.776;2023-07-13T06:03:13;5.05;;;2.20;;
38427;SDS011;24211;49.980;19.776;2023-07-13T06:05:41;3.97;;;2.10;;
38427;SDS011;24211;49.980;19.776;2023-07-13T06:08:09;4.38;;;2.10;;
38427;SDS011;24211;49.980;19.776;2023-07-13T06:10:36;4.20;;;2.30;;
38427;SDS011;24211;49.980;19.776;2023-07-13T06:13:04;3.50;;;1.98;;
38427;SDS011;24211;49.980;19.776;2023-07-13T06:15:32;4.70;;;2.30;;
38427;SDS011;24211;49.980;19.776;2023-07-13T06:18:00;3.75;;;2.10;;
38427;SDS011;24211;49.980;19.776;2023-07-13T06:20:27;4.22;;;2.10;;
38427;SDS011;24211;49.980;19.776;2023-07-13T06:22:56;4.95;;;2.20;;
38427;SDS011;24211;49.980;19.776;2023-07-13T06:25:23;3.88;;;2.28;;
38427;SDS011;24211;49.980;19.776;2023-07-13T06:27:50;3.80;;;1.85;;
38427;SDS011;24211;49.980;19.776;2023-07-13T06:30:17;4.35;;;1.90;;
38427;SDS011;24211;49.980;19.776;2023-07-13T06:32:45;4.05;;;2.00;;
38427;SDS011;24211;49.980;19.776;2023-07-13T06:35:12;4.13;;;2.10;;
38427;SDS011;24211;49.980;19.776;2023-07-13T06:37:40;5.22;;;2.35;;
38427;SDS011;24211;49.980;19.776;2023-07-13T06:40:07;4.13;;;1.95;;
38427;SDS011;24211;49.980;19.776;2023-07-13T06:42:35;4.22;;;2.00;;
38427;SDS011;24211;49.980;19.776;2023-07-13T06:45:05;3.67;;;2.00;;
38427;SDS011;24211;49.980;19.776;2023-07-13T06:47:32;3.72;;;2.20;;
38427;SDS011;24211;49.980;19.776;2023-07-13T06:50:00;4.95;;;2.67;;
38427;SDS011;24211;49.980;19.776;2023-07-13T06:52:30;4.57;;;2.30;;
38427;SDS011;24211;49.980;19.776;2023-07-13T06:54:57;4.20;;;2.08;;
38427;SDS011;24211;49.980;19.776;2023-07-13T06:57:24;4.03;;;2.00;;
38427;SDS011;24211;49.980;19.776;2023-07-13T06:59:51;3.55;;;1.75;;
38427;SDS011;24211;49.980;19.776;2023-07-13T07:02:19;3.92;;;2.00;;
38427;SDS011;24211;49.980;19.776;2023-07-13T07:04:46;6.50;;;2.00;;
38427;SDS011;24211;49.980;19.776;2023-07-13T07:07:13;4.57;;;2.30;;
38427;SDS011;24211;49.980;19.776;2023-07-13T07:09:40;4.72;;;1.80;;
38427;SDS011;24211;49.980;19.776;2023-07-13T07:12:07;4.03;;;1.90;;
38427;SDS011;24211;49.980;19.776;2023-07-13T07:14:35;3.83;;;2.03;;
38427;SDS011;24211;49.980;19.776;2023-07-13T07:17:02;5.90;;;2.30;;
38427;SDS011;24211;49.980;19.776;2023-07-13T07:19:30;3.90;;;2.20;;
38427;SDS011;24211;49.980;19.776;2023-07-13T07:21:57;4.05;;;1.92;;
38427;SDS011;24211;49.980;19.776;2023-07-13T07:24:24;5.45;;;2.30;;
38427;SDS011;24211;49.980;19.776;2023-07-13T07:26:52;4.22;;;2.40;;
38427;SDS011;24211;49.980;19.776;2023-07-13T07:29:22;4.97;;;2.25;;
38427;SDS011;24211;49.980;19.776;2023-07-13T07:31:52;5.55;;;2.40;;
38427;SDS011;24211;49.980;19.776;2023-07-13T07:34:23;4.23;;;2.30;;
38427;SDS011;24211;49.980;19.776;2023-07-13T07:36:51;5.85;;;2.63;;
38427;SDS011;24211;49.980;19.776;2023-07-13T07:39:21;3.63;;;2.20;;
38427;SDS011;24211;49.980;19.776;2023-07-13T07:41:48;5.20;;;2.97;;
38427;SDS011;24211;49.980;19.776;2023-07-13T07:44:18;4.53;;;2.30;;
38427;SDS011;24211;49.980;19.776;2023-07-13T07:46:45;3.70;;;2.10;;
38427;SDS011;24211;49.980;19.776;2023-07-13T07:49:13;4.78;;;2.65;;
38427;SDS011;24211;49.980;19.776;2023-07-13T07:51:40;4.70;;;2.10;;
38427;SDS011;24211;49.980;19.776;2023-07-13T07:54:07;3.97;;;2.17;;
38427;SDS011;24211;49.980;19.776;2023-07-13T07:56:40;3.20;;;1.90;;
38427;SDS011;24211;49.980;19.776;2023-07-13T07:59:10;3.92;;;1.80;;
38427;SDS011;24211;49.980;19.776;2023-07-13T08:01:40;4.35;;;2.13;;
38427;SDS011;24211;49.980;19.776;2023-07-13T08:04:27;3.38;;;2.00;;
38427;SDS011;24211;49.980;19.776;2023-07-13T08:06:57;4.00;;;2.03;;
38427;SDS011;24211;49.980;19.776;2023-07-13T08:09:24;4.38;;;2.00;;
38427;SDS011;24211;49.980;19.776;2023-07-13T08:11:52;3.65;;;2.08;;
38427;SDS011;24211;49.980;19.776;2023-07-13T08:14:24;4.65;;;2.15;;
38427;SDS011;24211;49.980;19.776;2023-07-13T08:17:04;4.70;;;2.30;;
38427;SDS011;24211;49.980;19.776;2023-07-13T08:19:32;4.63;;;2.10;;
38427;SDS011;24211;49.980;19.776;2023-07-13T08:21:59;5.13;;;2.10;;
38427;SDS011;24211;49.980;19.776;2023-07-13T08:24:26;3.75;;;1.98;;
38427;SDS011;24211;49.980;19.776;2023-07-13T08:26:54;3.40;;;1.98;;
38427;SDS011;24211;49.980;19.776;2023-07-13T08:29:20;4.28;;;2.00;;
38427;SDS011;24211;49.980;19.776;2023-07-13T08:31:48;3.72;;;2.03;;
38427;SDS011;24211;49.980;19.776;2023-07-13T08:34:15;3.15;;;2.00;;
38427;SDS011;24211;49.980;19.776;2023-07-13T08:36:43;3.50;;;1.83;;
38427;SDS011;24211;49.980;19.776;2023-07-13T08:39:10;3.30;;;1.92;;
38427;SDS011;24211;49.980;19.776;2023-07-13T08:41:37;3.72;;;1.85;;
38427;SDS011;24211;49.980;19.776;2023-07-13T08:44:05;3.67;;;1.95;;
38427;SDS011;24211;49.980;19.776;2023-07-13T08:46:50;4.07;;;2.10;;
38427;SDS011;24211;49.980;19.776;2023-07-13T08:49:22;3.40;;;2.00;;
38427;SDS011;24211;49.980;19.776;2023-07-13T08:51:51;4.35;;;1.92;;
38427;SDS011;24211;49.980;19.776;2023-07-13T08:54:34;4.55;;;1.98;;
38427;SDS011;24211;49.980;19.776;2023-07-13T08:57:13;2.75;;;1.60;;
38427;SDS011;24211;49.980;19.776;2023-07-13T08:59:47;3.83;;;2.00;;
38427;SDS011;24211;49.980;19.776;2023-07-13T09:02:22;3.00;;;1.88;;
38427;SDS011;24211;49.980;19.776;2023-07-13T09:04:59;4.80;;;2.00;;
38427;SDS011;24211;49.980;19.776;2023-07-13T09:07:42;3.25;;;1.63;;
38427;SDS011;24211;49.980;19.776;2023-07-13T09:16:03;4.82;;;2.20;;
38427;SDS011;24211;49.980;19.776;2023-07-13T09:18:36;4.97;;;2.30;;
38427;SDS011;24211;49.980;19.776;2023-07-13T09:21:17;3.97;;;2.00;;
38427;SDS011;24211;49.980;19.776;2023-07-13T09:23:54;3.03;;;1.83;;
38427;SDS011;24211;49.980;19.776;2023-07-13T09:26:29;3.85;;;2.20;;
38427;SDS011;24211;49.980;19.776;2023-07-13T09:29:03;4.93;;;2.33;;
38427;SDS011;24211;49.980;19.776;2023-07-13T09:31:47;10.98;;;2.55;;
38427;SDS011;24211;49.980;19.776;2023-07-13T09:34:21;4.72;;;2.47;;
38427;SDS011;24211;49.980;19.776;2023-07-13T09:36:48;4.75;;;2.50;;
38427;SDS011;24211;49.980;19.776;2023-07-13T09:42:17;5.63;;;2.70;;
38427;SDS011;24211;49.980;19.776;2023-07-13T09:44:53;5.00;;;2.70;;
38427;SDS011;24211;49.980;19.776;2023-07-13T09:47:29;4.20;;;2.70;;
38427;SDS011;24211;49.980;19.776;2023-07-13T09:50:06;4.93;;;2.60;;
38427;SDS011;24211;49.980;19.776;2023-07-13T09:52:42;4.78;;;2.80;;
38427;SDS011;24211;49.980;19.776;2023-07-13T09:55:23;4.65;;;2.42;;
38427;SDS011;24211;49.980;19.776;2023-07-13T09:58:20;6.00;;;2.63;;
38427;SDS011;24211;49.980;19.776;2023-07-13T10:00:55;5.25;;;2.80;;
38427;SDS011;24211;49.980;19.776;2023-07-13T10:03:32;5.00;;;2.60;;
38427;SDS011;24211;49.980;19.776;2023-07-13T10:06:11;4.95;;;2.72;;
38427;SDS011;24211;49.980;19.776;2023-07-13T10:08:49;4.88;;;2.80;;
38427;SDS011;24211;49.980;19.776;2023-07-13T10:13:57;4.82;;;3.10;;
38427;SDS011;24211;49.980;19.776;2023-07-13T10:16:30;4.85;;;2.83;;
38427;SDS011;24211;49.980;19.776;2023-07-13T10:19:02;4.65;;;2.80;;
38427;SDS011;24211;49.980;19.776;2023-07-13T10:21:57;5.88;;;3.42;;
38427;SDS011;24211;49.980;19.776;2023-07-13T10:24:36;5.60;;;3.30;;
38427;SDS011;24211;49.980;19.776;2023-07-13T10:32:49;9.18;;;3.80;;
38427;SDS011;24211;49.980;19.776;2023-07-13T10:35:17;6.60;;;3.90;;
38427;SDS011;24211;49.980;19.776;2023-07-13T10:37:54;7.38;;;4.00;;
38427;SDS011;24211;49.980;19.776;2023-07-13T10:40:36;8.57;;;4.30;;
38427;SDS011;24211;49.980;19.776;2023-07-13T10:43:36;6.80;;;3.72;;
38427;SDS011;24211;49.980;19.776;2023-07-13T10:46:13;7.15;;;3.65;;
38427;SDS011;24211;49.980;19.776;2023-07-13T10:48:43;6.20;;;3.65;;
38427;SDS011;24211;49.980;19.776;2023-07-13T10:51:17;6.10;;;3.40;;
38427;SDS011;24211;49.980;19.776;2023-07-13T10:53:48;5.47;;;3.35;;
38427;SDS011;24211;49.980;19.776;2023-07-13T10:56:46;6.10;;;3.75;;
38427;SDS011;24211;49.980;19.776;2023-07-13T10:59:19;6.00;;;3.40;;
38427;SDS011;24211;49.980;19.776;2023-07-13T11:02:08;6.88;;;4.05;;
38427;SDS011;24211;49.980;19.776;2023-07-13T11:04:53;7.20;;;3.90;;
38427;SDS011;24211;49.980;19.776;2023-07-13T11:07:25;8.13;;;4.15;;
38427;SDS011;24211;49.980;19.776;2023-07-13T11:09:57;6.85;;;4.30;;
38427;SDS011;24211;49.980;19.776;2023-07-13T11:12:28;8.82;;;4.47;;
38427;SDS011;24211;49.980;19.776;2023-07-13T11:15:27;7.20;;;4.10;;
38427;SDS011;24211;49.980;19.776;2023-07-13T11:18:19;7.88;;;4.38;;
38427;SDS011;24211;49.980;19.776;2023-07-13T11:20:50;8.68;;;4.05;;
38427;SDS011;24211;49.980;19.776;2023-07-13T11:23:19;7.60;;;4.05;;
38427;SDS011;24211;49.980;19.776;2023-07-13T11:25:56;8.68;;;3.10;;
38427;SDS011;24211;49.980;19.776;2023-07-13T11:28:24;3.58;;;2.00;;
38427;SDS011;24211;49.980;19.776;2023-07-13T11:36:17;2.83;;;1.15;;
38427;SDS011;24211;49.980;19.776;2023-07-13T11:41:48;3.05;;;1.38;;
38427;SDS011;24211;49.980;19.776;2023-07-13T11:44:20;2.17;;;1.20;;
38427;SDS011;24211;49.980;19.776;2023-07-13T11:49:24;3.25;;;1.40;;
38427;SDS011;24211;49.980;19.776;2023-07-13T11:51:54;3.20;;;1.35;;
38427;SDS011;24211;49.980;19.776;2023-07-13T11:54:24;3.05;;;1.35;;
38427;SDS011;24211;49.980;19.776;2023-07-13T11:59:49;3.08;;;1.33;;
38427;SDS011;24211;49.980;19.776;2023-07-13T12:03:03;2.55;;;1.27;;
38427;SDS011;24211;49.980;19.776;2023-07-13T12:05:19;2.80;;;1.40;;
38427;SDS011;24211;49.980;19.776;2023-07-13T12:07:48;2.92;;;1.40;;
38427;SDS011;24211;49.980;19.776;2023-07-13T12:10:20;2.97;;;1.20;;
38427;SDS011;24211;49.980;19.776;2023-07-13T12:12:53;2.72;;;1.30;;
38427;SDS011;24211;49.980;19.776;2023-07-13T12:15:28;2.40;;;1.30;;
38427;SDS011;24211;49.980;19.776;2023-07-13T12:18:16;2.78;;;1.10;;
38427;SDS011;24211;49.980;19.776;2023-07-13T12:20:48;2.03;;;1.00;;
38427;SDS011;24211;49.980;19.776;2023-07-13T12:23:28;1.85;;;0.95;;
38427;SDS011;24211;49.980;19.776;2023-07-13T12:26:01;3.10;;;1.05;;
38427;SDS011;24211;49.980;19.776;2023-07-13T12:28:34;2.38;;;1.13;;
38427;SDS011;24211;49.980;19.776;2023-07-13T12:31:07;2.28;;;1.00;;
38427;SDS011;24211;49.980;19.776;2023-07-13T12:33:58;1.92;;;0.90;;
38427;SDS011;24211;49.980;19.776;2023-07-13T12:36:36;2.80;;;0.80;;
38427;SDS011;24211;49.980;19.776;2023-07-13T12:39:14;2.42;;;1.00;;
38427;SDS011;24211;49.980;19.776;2023-07-13T12:41:44;3.15;;;0.90;;
38427;SDS011;24211;49.980;19.776;2023-07-13T12:44:13;2.60;;;0.88;;
38427;SDS011;24211;49.980;19.776;2023-07-13T12:49:45;2.75;;;0.90;;
38427;SDS011;24211;49.980;19.776;2023-07-13T12:52:23;2.00;;;0.93;;
38427;SDS011;24211;49.980;19.776;2023-07-13T12:55:06;1.42;;;0.85;;
38427;SDS011;24211;49.980;19.776;2023-07-13T13:00:23;1.75;;;1.02;;
38427;SDS011;24211;49.980;19.776;2023-07-13T13:03:12;3.42;;;1.10;;
38427;SDS011;24211;49.980;19.776;2023-07-13T13:05:56;2.90;;;1.05;;
38427;SDS011;24211;49.980;19.776;2023-07-13T13:08:26;2.13;;;0.98;;
38427;SDS011;24211;49.980;19.776;2023-07-13T13:10:53;2.20;;;1.15;;
38427;SDS011;24211;49.980;19.776;2023-07-13T13:13:20;2.47;;;1.30;;
38427;SDS011;24211;49.980;19.776;2023-07-13T13:15:48;2.58;;;1.15;;
38427;SDS011;24211;49.980;19.776;2023-07-13T13:18:19;2.92;;;1.02;;
38427;SDS011;24211;49.980;19.776;2023-07-13T13:20:50;2.30;;;1.23;;
38427;SDS011;24211;49.980;19.776;2023-07-13T13:23:19;2.22;;;1.08;;
38427;SDS011;24211;49.980;19.776;2023-07-13T13:25:48;2.15;;;1.00;;
38427;SDS011;24211;49.980;19.776;2023-07-13T13:28:18;2.50;;;0.82;;
38427;SDS011;24211;49.980;19.776;2023-07-13T13:30:48;3.63;;;1.05;;
38427;SDS011;24211;49.980;19.776;2023-07-13T13:33:18;2.22;;;1.00;;
38427;SDS011;24211;49.980;19.776;2023-07-13T13:35:48;2.53;;;1.10;;
38427;SDS011;24211;49.980;19.776;2023-07-13T13:38:20;2.45;;;1.02;;
38427;SDS011;24211;49.980;19.776;2023-07-13T13:40:52;1.80;;;0.90;;
38427;SDS011;24211;49.980;19.776;2023-07-13T13:43:22;2.63;;;1.10;;
38427;SDS011;24211;49.980;19.776;2023-07-13T13:45:55;2.42;;;0.88;;
38427;SDS011;24211;49.980;19.776;2023-07-13T13:51:00;2.53;;;1.10;;
38427;SDS011;24211;49.980;19.776;2023-07-13T13:53:39;2.72;;;1.30;;
38427;SDS011;24211;49.980;19.776;2023-07-13T13:56:07;2.85;;;1.05;;
38427;SDS011;24211;49.980;19.776;2023-07-13T13:58:34;2.22;;;1.10;;
38427;SDS011;24211;49.980;19.776;2023-07-13T14:01:02;2.20;;;1.05;;
38427;SDS011;24211;49.980;19.776;2023-07-13T14:03:29;1.55;;;0.90;;
38427;SDS011;24211;49.980;19.776;2023-07-13T14:05:56;2.15;;;1.00;;
38427;SDS011;24211;49.980;19.776;2023-07-13T14:08:24;2.38;;;1.20;;
38427;SDS011;24211;49.980;19.776;2023-07-13T14:10:52;2.20;;;0.90;;
38427;SDS011;24211;49.980;19.776;2023-07-13T14:15:59;1.73;;;0.90;;
38427;SDS011;24211;49.980;19.776;2023-07-13T14:18:26;2.30;;;1.00;;
38427;SDS011;24211;49.980;19.776;2023-07-13T14:20:53;2.20;;;1.13;;
38427;SDS011;24211;49.980;19.776;2023-07-13T14:23:20;2.17;;;1.10;;
38427;SDS011;24211;49.980;19.776;2023-07-13T14:25:48;2.55;;;1.10;;
38427;SDS011;24211;49.980;19.776;2023-07-13T14:30:52;2.83;;;1.10;;
38427;SDS011;24211;49.980;19.776;2023-07-13T14:33:21;3.05;;;1.10;;
38427;SDS011;24211;49.980;19.776;2023-07-13T14:35:49;2.53;;;1.10;;
38427;SDS011;24211;49.980;19.776;2023-07-13T14:38:19;2.63;;;1.20;;
38427;SDS011;24211;49.980;19.776;2023-07-13T14:40:47;2.03;;;0.93;;
38427;SDS011;24211;49.980;19.776;2023-07-13T14:43:15;2.15;;;1.17;;
38427;SDS011;24211;49.980;19.776;2023-07-13T14:45:46;2.40;;;1.15;;
38427;SDS011;24211;49.980;19.776;2023-07-13T14:50:49;3.25;;;1.40;;
38427;SDS011;24211;49.980;19.776;2023-07-13T14:53:24;2.63;;;1.30;;
38427;SDS011;24211;49.980;19.776;2023-07-13T14:55:56;2.47;;;1.40;;
38427;SDS011;24211;49.980;19.776;2023-07-13T14:58:23;2.67;;;1.38;;
38427;SDS011;24211;49.980;19.776;2023-07-13T15:00:50;3.22;;;1.58;;
38427;SDS011;24211;49.980;19.776;2023-07-13T15:03:23;4.60;;;1.55;;
38427;SDS011;24211;49.980;19.776;2023-07-13T15:05:52;2.72;;;1.38;;
38427;SDS011;24211;49.980;19.776;2023-07-13T15:08:19;3.00;;;1.58;;
38427;SDS011;24211;49.980;19.776;2023-07-13T15:10:47;3.13;;;1.60;;
38427;SDS011;24211;49.980;19.776;2023-07-13T15:13:15;3.33;;;1.63;;
38427;SDS011;24211;49.980;19.776;2023-07-13T15:15:49;2.72;;;1.55;;
38427;SDS011;24211;49.980;19.776;2023-07-13T15:18:20;3.53;;;1.70;;
38427;SDS011;24211;49.980;19.776;2023-07-13T15:20:51;3.70;;;1.90;;
38427;SDS011;24211;49.980;19.776;2023-07-13T15:23:19;3.42;;;1.70;;
38427;SDS011;24211;49.980;19.776;2023-07-13T15:25:47;3.67;;;1.70;;
38427;SDS011;24211;49.980;19.776;2023-07-13T15:28:15;3.67;;;1.90;;
38427;SDS011;24211;49.980;19.776;2023-07-13T15:30:43;4.40;;;1.90;;
38427;SDS011;24211;49.980;19.776;2023-07-13T15:33:26;4.93;;;1.77;;
38427;SDS011;24211;49.980;19.776;2023-07-13T15:36:10;4.40;;;2.00;;
38427;SDS011;24211;49.980;19.776;2023-07-13T15:38:43;3.20;;;1.67;;
38427;SDS011;24211;49.980;19.776;2023-07-13T15:41:27;2.92;;;1.60;;
38427;SDS011;24211;49.980;19.776;2023-07-13T15:43:56;3.78;;;1.67;;
38427;SDS011;24211;49.980;19.776;2023-07-13T15:46:27;4.20;;;1.55;;
38427;SDS011;24211;49.980;19.776;2023-07-13T15:48:55;3.97;;;1.67;;
38427;SDS011;24211;49.980;19.776;2023-07-13T15:51:26;3.45;;;1.52;;